sensor_id;sensor_type;location;lat;lon;timestamp;temperature;humidity
33269;DHT22;19640;50.944;5.260;2022-07-29T00:01:20;18.10;99.90
33269;DHT22;19640;50.944;5.260;2022-07-29T00:03:46;18.20;99.90
33269;DHT22;19640;50.944;5.260;2022-07-29T00:06:12;18.10;99.90
33269;DHT22;19640;50.944;5.260;2022-07-29T00:08:38;18.10;99.90
33269;DHT22;19640;50.944;5.260;2022-07-29T00:11:04;18.00;99.90
33269;DHT22;19640;50.944;5.260;2022-07-29T00:13:29;18.10;99.90
33269;DHT22;19640;50.944;5.260;2022-07-29T00:15:55;18.00;99.90
33269;DHT22;19640;50.944;5.260;2022-07-29T00:18:21;17.80;99.90
33269;DHT22;19640;50.944;5.260;2022-07-29T00:20:46;17.80;99.90
33269;DHT22;19640;50.944;5.260;2022-07-29T00:23:12;17.90;99.90
33269;DHT22;19640;50.944;5.260;2022-07-29T00:25:37;18.00;99.90
33269;DHT22;19640;50.944;5.260;2022-07-29T00:28:03;18.00;99.90
33269;DHT22;19640;50.944;5.260;2022-07-29T00:30:29;18.10;99.90
33269;DHT22;19640;50.944;5.260;2022-07-29T00:32:54;18.10;99.90
33269;DHT22;19640;50.944;5.260;2022-07-29T00:35:20;17.90;99.90
33269;DHT22;19640;50.944;5.260;2022-07-29T00:38:04;17.80;99.90
33269;DHT22;19640;50.944;5.260;2022-07-29T00:40:30;17.90;99.90
33269;DHT22;19640;50.944;5.260;2022-07-29T00:42:55;17.70;99.90
33269;DHT22;19640;50.944;5.260;2022-07-29T00:45:21;17.70;99.90
33269;DHT22;19640;50.944;5.260;2022-07-29T00:47:50;17.70;99.90
33269;DHT22;19640;50.944;5.260;2022-07-29T00:50:16;17.60;99.90
33269;DHT22;19640;50.944;5.260;2022-07-29T00:52:42;17.50;99.90
33269;DHT22;19640;50.944;5.260;2022-07-29T00:55:11;17.20;99.90
33269;DHT22;19640;50.944;5.260;2022-07-29T00:57:37;17.20;99.90
33269;DHT22;19640;50.944;5.260;2022-07-29T01:00:09;17.40;99.90
33269;DHT22;19640;50.944;5.260;2022-07-29T01:02:35;17.40;99.90
33269;DHT22;19640;50.944;5.260;2022-07-29T01:05:02;17.50;99.90
33269;DHT22;19640;50.944;5.260;2022-07-29T01:07:30;17.50;99.90
33269;DHT22;19640;50.944;5.260;2022-07-29T01:09:56;17.50;99.90
33269;DHT22;19640;50.944;5.260;2022-07-29T01:12:27;17.60;99.90
33269;DHT22;19640;50.944;5.260;2022-07-29T01:14:54;17.70;99.90
33269;DHT22;19640;50.944;5.260;2022-07-29T01:17:25;17.70;99.90
33269;DHT22;19640;50.944;5.260;2022-07-29T01:28:49;17.50;99.90
33269;DHT22;19640;50.944;5.260;2022-07-29T01:31:22;17.20;99.90
33269;DHT22;19640;50.944;5.260;2022-07-29T01:33:54;17.10;99.90
33269;DHT22;19640;50.944;5.260;2022-07-29T01:39:14;17.50;99.90
33269;DHT22;19640;50.944;5.260;2022-07-29T01:41:49;17.50;99.90
33269;DHT22;19640;50.944;5.260;2022-07-29T01:44:26;17.60;99.90
33269;DHT22;19640;50.944;5.260;2022-07-29T01:46:57;17.70;99.90
33269;DHT22;19640;50.944;5.260;2022-07-29T01:49:29;17.30;99.90
33269;DHT22;19640;50.944;5.260;2022-07-29T01:52:05;16.60;99.90
33269;DHT22;19640;50.944;5.260;2022-07-29T01:54:41;16.40;99.90
33269;DHT22;19640;50.944;5.260;2022-07-29T01:57:14;16.50;99.90
33269;DHT22;19640;50.944;5.260;2022-07-29T01:59:42;16.60;99.90
33269;DHT22;19640;50.944;5.260;2022-07-29T02:02:09;16.80;99.90
33269;DHT22;19640;50.944;5.260;2022-07-29T02:04:37;16.90;99.90
33269;DHT22;19640;50.944;5.260;2022-07-29T02:07:06;17.10;99.90
33269;DHT22;19640;50.944;5.260;2022-07-29T02:09:35;17.10;99.90
33269;DHT22;19640;50.944;5.260;2022-07-29T02:12:03;17.20;99.90
33269;DHT22;19640;50.944;5.260;2022-07-29T02:14:42;17.10;99.90
33269;DHT22;19640;50.944;5.260;2022-07-29T02:17:10;17.20;99.90
33269;DHT22;19640;50.944;5.260;2022-07-29T02:19:38;17.20;99.90
33269;DHT22;19640;50.944;5.260;2022-07-29T02:22:06;17.20;99.90
33269;DHT22;19640;50.944;5.260;2022-07-29T02:24:34;17.30;99.90
33269;DHT22;19640;50.944;5.260;2022-07-29T02:27:02;17.30;99.90
33269;DHT22;19640;50.944;5.260;2022-07-29T02:29:28;17.20;99.90
33269;DHT22;19640;50.944;5.260;2022-07-29T02:31:57;17.00;99.90
33269;DHT22;19640;50.944;5.260;2022-07-29T02:34:27;17.10;99.90
33269;DHT22;19640;50.944;5.260;2022-07-29T02:36:54;17.20;99.90
33269;DHT22;19640;50.944;5.260;2022-07-29T02:39:22;17.10;99.90
33269;DHT22;19640;50.944;5.260;2022-07-29T02:41:59;17.10;99.90
33269;DHT22;19640;50.944;5.260;2022-07-29T02:44:26;17.20;99.90
33269;DHT22;19640;50.944;5.260;2022-07-29T02:47:30;17.30;99.90
33269;DHT22;19640;50.944;5.260;2022-07-29T02:50:06;17.10;99.90
33269;DHT22;19640;50.944;5.260;2022-07-29T02:52:57;16.70;99.90
33269;DHT22;19640;50.944;5.260;2022-07-29T02:55:44;16.80;99.90
33269;DHT22;19640;50.944;5.260;2022-07-29T03:00:46;16.60;99.90
33269;DHT22;19640;50.944;5.260;2022-07-29T03:03:16;16.80;99.90
33269;DHT22;19640;50.944;5.260;2022-07-29T03:05:43;17.00;99.90
33269;DHT22;19640;50.944;5.260;2022-07-29T03:08:10;17.10;99.90
33269;DHT22;19640;50.944;5.260;2022-07-29T03:10:38;16.90;99.90
33269;DHT22;19640;50.944;5.260;2022-07-29T03:13:05;16.80;99.90
33269;DHT22;19640;50.944;5.260;2022-07-29T03:15:31;17.00;99.90
33269;DHT22;19640;50.944;5.260;2022-07-29T03:17:58;16.90;99.90
33269;DHT22;19640;50.944;5.260;2022-07-29T03:20:25;16.70;99.90
33269;DHT22;19640;50.944;5.260;2022-07-29T03:22:51;16.60;99.90
33269;DHT22;19640;50.944;5.260;2022-07-29T03:25:19;16.60;99.90
33269;DHT22;19640;50.944;5.260;2022-07-29T03:27:45;16.50;99.90
33269;DHT22;19640;50.944;5.260;2022-07-29T03:30:12;16.20;99.90
33269;DHT22;19640;50.944;5.260;2022-07-29T03:32:38;16.10;99.90
33269;DHT22;19640;50.944;5.260;2022-07-29T03:35:05;16.40;99.90
33269;DHT22;19640;50.944;5.260;2022-07-29T03:37:31;16.60;99.90
33269;DHT22;19640;50.944;5.260;2022-07-29T03:40:00;16.80;99.90
33269;DHT22;19640;50.944;5.260;2022-07-29T03:42:29;16.80;99.90
33269;DHT22;19640;50.944;5.260;2022-07-29T03:44:57;16.90;99.90
33269;DHT22;19640;50.944;5.260;2022-07-29T03:47:26;17.00;99.90
33269;DHT22;19640;50.944;5.260;2022-07-29T03:49:56;17.00;99.90
33269;DHT22;19640;50.944;5.260;2022-07-29T03:52:22;17.10;99.90
33269;DHT22;19640;50.944;5.260;2022-07-29T03:54:48;17.00;99.90
33269;DHT22;19640;50.944;5.260;2022-07-29T03:57:15;16.90;99.90
33269;DHT22;19640;50.944;5.260;2022-07-29T03:59:41;16.90;99.90
33269;DHT22;19640;50.944;5.260;2022-07-29T04:02:09;16.90;99.90
33269;DHT22;19640;50.944;5.260;2022-07-29T04:04:36;17.00;99.90
33269;DHT22;19640;50.944;5.260;2022-07-29T04:07:03;17.10;99.90
33269;DHT22;19640;50.944;5.260;2022-07-29T04:09:29;17.20;99.90
33269;DHT22;19640;50.944;5.260;2022-07-29T04:11:55;17.20;99.90
33269;DHT22;19640;50.944;5.260;2022-07-29T04:14:20;17.20;99.90
33269;DHT22;19640;50.944;5.260;2022-07-29T04:16:46;17.30;99.90
33269;DHT22;19640;50.944;5.260;2022-07-29T04:19:12;17.50;99.90
33269;DHT22;19640;50.944;5.260;2022-07-29T04:21:39;17.70;99.90
33269;DHT22;19640;50.944;5.260;2022-07-29T04:24:05;17.80;99.90
33269;DHT22;19640;50.944;5.260;2022-07-29T04:26:31;17.90;99.90
33269;DHT22;19640;50.944;5.260;2022-07-29T04:28:56;17.90;99.90
33269;DHT22;19640;50.944;5.260;2022-07-29T04:31:22;18.00;99.90
33269;DHT22;19640;50.944;5.260;2022-07-29T04:33:47;18.00;99.90
33269;DHT22;19640;50.944;5.260;2022-07-29T04:36:13;17.90;99.90
33269;DHT22;19640;50.944;5.260;2022-07-29T04:38:39;17.80;99.90
33269;DHT22;19640;50.944;5.260;2022-07-29T04:41:05;17.60;99.90
33269;DHT22;19640;50.944;5.260;2022-07-29T04:43:33;17.40;99.90
33269;DHT22;19640;50.944;5.260;2022-07-29T04:45:58;17.30;99.90
33269;DHT22;19640;50.944;5.260;2022-07-29T04:48:25;17.20;99.90
33269;DHT22;19640;50.944;5.260;2022-07-29T04:50:51;17.10;99.90
33269;DHT22;19640;50.944;5.260;2022-07-29T04:53:16;17.10;99.90
33269;DHT22;19640;50.944;5.260;2022-07-29T04:55:42;17.00;99.90
33269;DHT22;19640;50.944;5.260;2022-07-29T04:58:07;17.00;99.90
33269;DHT22;19640;50.944;5.260;2022-07-29T05:00:33;16.80;99.90
33269;DHT22;19640;50.944;5.260;2022-07-29T05:02:59;16.80;99.90
33269;DHT22;19640;50.944;5.260;2022-07-29T05:05:25;16.70;99.90
33269;DHT22;19640;50.944;5.260;2022-07-29T05:07:50;16.90;99.90
33269;DHT22;19640;50.944;5.260;2022-07-29T05:10:16;16.90;99.90
33269;DHT22;19640;50.944;5.260;2022-07-29T05:12:42;16.90;99.90
33269;DHT22;19640;50.944;5.260;2022-07-29T05:15:08;16.80;99.90
33269;DHT22;19640;50.944;5.260;2022-07-29T05:17:34;17.00;99.90
33269;DHT22;19640;50.944;5.260;2022-07-29T05:20:00;17.30;99.90
33269;DHT22;19640;50.944;5.260;2022-07-29T05:22:25;17.30;99.90
33269;DHT22;19640;50.944;5.260;2022-07-29T05:24:51;17.00;99.90
33269;DHT22;19640;50.944;5.260;2022-07-29T05:27:17;16.70;99.90
33269;DHT22;19640;50.944;5.260;2022-07-29T05:29:42;16.80;99.90
33269;DHT22;19640;50.944;5.260;2022-07-29T05:32:08;17.10;99.90
33269;DHT22;19640;50.944;5.260;2022-07-29T05:34:34;17.40;99.90
33269;DHT22;19640;50.944;5.260;2022-07-29T05:36:59;17.50;99.90
33269;DHT22;19640;50.944;5.260;2022-07-29T05:39:25;17.30;99.90
33269;DHT22;19640;50.944;5.260;2022-07-29T05:41:51;17.20;99.90
33269;DHT22;19640;50.944;5.260;2022-07-29T05:44:17;17.30;99.90
33269;DHT22;19640;50.944;5.260;2022-07-29T05:46:42;17.40;99.90
33269;DHT22;19640;50.944;5.260;2022-07-29T05:49:08;17.40;99.90
33269;DHT22;19640;50.944;5.260;2022-07-29T05:51:34;17.40;99.90
33269;DHT22;19640;50.944;5.260;2022-07-29T05:54:00;17.60;99.90
33269;DHT22;19640;50.944;5.260;2022-07-29T05:56:26;17.60;99.90
33269;DHT22;19640;50.944;5.260;2022-07-29T05:58:52;17.60;99.90
33269;DHT22;19640;50.944;5.260;2022-07-29T06:01:17;17.50;99.90
33269;DHT22;19640;50.944;5.260;2022-07-29T06:03:43;17.70;99.90
33269;DHT22;19640;50.944;5.260;2022-07-29T06:06:09;17.50;99.90
33269;DHT22;19640;50.944;5.260;2022-07-29T06:08:35;17.40;99.90
33269;DHT22;19640;50.944;5.260;2022-07-29T06:11:01;17.60;99.90
33269;DHT22;19640;50.944;5.260;2022-07-29T06:13:27;17.80;99.90
33269;DHT22;19640;50.944;5.260;2022-07-29T06:15:53;17.90;99.90
33269;DHT22;19640;50.944;5.260;2022-07-29T06:18:18;17.80;99.90
33269;DHT22;19640;50.944;5.260;2022-07-29T06:20:46;18.00;99.90
33269;DHT22;19640;50.944;5.260;2022-07-29T06:23:11;17.90;99.90
33269;DHT22;19640;50.944;5.260;2022-07-29T06:25:39;17.70;99.90
33269;DHT22;19640;50.944;5.260;2022-07-29T06:28:05;17.50;99.90
33269;DHT22;19640;50.944;5.260;2022-07-29T06:30:30;17.70;99.90
33269;DHT22;19640;50.944;5.260;2022-07-29T06:32:56;18.00;99.90
33269;DHT22;19640;50.944;5.260;2022-07-29T06:35:21;18.40;99.90
33269;DHT22;19640;50.944;5.260;2022-07-29T06:37:47;18.60;99.90
33269;DHT22;19640;50.944;5.260;2022-07-29T06:40:13;18.10;99.90
33269;DHT22;19640;50.944;5.260;2022-07-29T06:42:59;17.50;99.90
33269;DHT22;19640;50.944;5.260;2022-07-29T06:45:24;17.70;99.90
33269;DHT22;19640;50.944;5.260;2022-07-29T06:47:50;17.70;99.90
33269;DHT22;19640;50.944;5.260;2022-07-29T06:50:16;17.90;99.90
33269;DHT22;19640;50.944;5.260;2022-07-29T06:52:42;17.70;99.90
33269;DHT22;19640;50.944;5.260;2022-07-29T06:55:08;17.60;99.90
33269;DHT22;19640;50.944;5.260;2022-07-29T06:57:34;18.20;99.90
33269;DHT22;19640;50.944;5.260;2022-07-29T07:00:00;18.50;99.90
33269;DHT22;19640;50.944;5.260;2022-07-29T07:02:25;19.70;99.90
33269;DHT22;19640;50.944;5.260;2022-07-29T07:04:51;19.70;99.90
33269;DHT22;19640;50.944;5.260;2022-07-29T07:07:17;20.30;99.90
33269;DHT22;19640;50.944;5.260;2022-07-29T07:09:43;21.70;99.90
33269;DHT22;19640;50.944;5.260;2022-07-29T07:12:08;23.30;99.90
33269;DHT22;19640;50.944;5.260;2022-07-29T07:14:34;23.60;99.90
33269;DHT22;19640;50.944;5.260;2022-07-29T07:17:00;24.10;99.90
33269;DHT22;19640;50.944;5.260;2022-07-29T07:19:26;23.60;99.90
33269;DHT22;19640;50.944;5.260;2022-07-29T07:21:55;23.80;99.90
33269;DHT22;19640;50.944;5.260;2022-07-29T07:24:20;25.10;99.90
33269;DHT22;19640;50.944;5.260;2022-07-29T07:26:46;25.50;99.90
33269;DHT22;19640;50.944;5.260;2022-07-29T07:29:12;25.20;99.90
33269;DHT22;19640;50.944;5.260;2022-07-29T07:31:38;24.80;99.90
33269;DHT22;19640;50.944;5.260;2022-07-29T07:34:04;23.90;99.90
33269;DHT22;19640;50.944;5.260;2022-07-29T07:36:29;24.80;99.90
33269;DHT22;19640;50.944;5.260;2022-07-29T07:38:55;25.40;99.90
33269;DHT22;19640;50.944;5.260;2022-07-29T07:41:21;24.70;99.90
33269;DHT22;19640;50.944;5.260;2022-07-29T07:43:47;24.80;99.90
33269;DHT22;19640;50.944;5.260;2022-07-29T07:46:12;26.00;99.90
33269;DHT22;19640;50.944;5.260;2022-07-29T07:48:38;26.50;99.90
33269;DHT22;19640;50.944;5.260;2022-07-29T07:51:04;25.50;99.90
33269;DHT22;19640;50.944;5.260;2022-07-29T07:53:29;26.40;99.90
33269;DHT22;19640;50.944;5.260;2022-07-29T07:55:55;26.30;99.90
33269;DHT22;19640;50.944;5.260;2022-07-29T07:58:21;24.90;99.90
33269;DHT22;19640;50.944;5.260;2022-07-29T08:00:47;25.00;99.90
33269;DHT22;19640;50.944;5.260;2022-07-29T08:03:13;25.50;99.90
33269;DHT22;19640;50.944;5.260;2022-07-29T08:05:40;25.60;99.90
33269;DHT22;19640;50.944;5.260;2022-07-29T08:08:06;25.90;99.90
33269;DHT22;19640;50.944;5.260;2022-07-29T08:10:32;26.90;99.90
33269;DHT22;19640;50.944;5.260;2022-07-29T08:13:17;26.70;98.70
33269;DHT22;19640;50.944;5.260;2022-07-29T08:15:43;25.70;99.70
33269;DHT22;19640;50.944;5.260;2022-07-29T08:18:10;25.30;99.90
33269;DHT22;19640;50.944;5.260;2022-07-29T08:20:36;25.00;99.90
33269;DHT22;19640;50.944;5.260;2022-07-29T08:23:04;24.20;99.90
33269;DHT22;19640;50.944;5.260;2022-07-29T08:25:37;24.10;99.90
33269;DHT22;19640;50.944;5.260;2022-07-29T08:28:04;22.50;99.90
33269;DHT22;19640;50.944;5.260;2022-07-29T08:30:30;22.50;99.90
33269;DHT22;19640;50.944;5.260;2022-07-29T08:32:58;22.50;99.90
33269;DHT22;19640;50.944;5.260;2022-07-29T08:35:24;23.00;99.90
33269;DHT22;19640;50.944;5.260;2022-07-29T08:37:51;22.70;99.90
33269;DHT22;19640;50.944;5.260;2022-07-29T08:40:17;22.70;99.90
33269;DHT22;19640;50.944;5.260;2022-07-29T08:42:42;23.10;99.90
33269;DHT22;19640;50.944;5.260;2022-07-29T08:45:08;23.50;99.90
33269;DHT22;19640;50.944;5.260;2022-07-29T08:47:34;23.30;99.90
33269;DHT22;19640;50.944;5.260;2022-07-29T08:50:05;23.00;99.90
33269;DHT22;19640;50.944;5.260;2022-07-29T08:52:35;23.30;99.90
33269;DHT22;19640;50.944;5.260;2022-07-29T08:55:01;23.30;99.90
33269;DHT22;19640;50.944;5.260;2022-07-29T08:57:28;23.60;99.90
33269;DHT22;19640;50.944;5.260;2022-07-29T08:59:54;23.40;99.90
33269;DHT22;19640;50.944;5.260;2022-07-29T09:02:21;23.50;99.90
33269;DHT22;19640;50.944;5.260;2022-07-29T09:04:47;23.90;99.90
33269;DHT22;19640;50.944;5.260;2022-07-29T09:07:17;24.10;99.90
33269;DHT22;19640;50.944;5.260;2022-07-29T09:09:43;23.60;99.90
33269;DHT22;19640;50.944;5.260;2022-07-29T09:12:10;23.80;99.90
33269;DHT22;19640;50.944;5.260;2022-07-29T09:14:40;24.10;99.90
33269;DHT22;19640;50.944;5.260;2022-07-29T09:17:06;24.20;99.90
33269;DHT22;19640;50.944;5.260;2022-07-29T09:19:38;24.40;99.90
33269;DHT22;19640;50.944;5.260;2022-07-29T09:22:05;24.50;99.90
33269;DHT22;19640;50.944;5.260;2022-07-29T09:27:20;23.70;99.90
33269;DHT22;19640;50.944;5.260;2022-07-29T09:29:47;23.50;99.90
33269;DHT22;19640;50.944;5.260;2022-07-29T09:32:20;23.80;99.90
33269;DHT22;19640;50.944;5.260;2022-07-29T09:34:45;23.70;99.90
33269;DHT22;19640;50.944;5.260;2022-07-29T09:37:11;23.10;99.90
33269;DHT22;19640;50.944;5.260;2022-07-29T09:39:39;23.10;99.90
33269;DHT22;19640;50.944;5.260;2022-07-29T09:42:11;23.10;99.90
33269;DHT22;19640;50.944;5.260;2022-07-29T09:44:48;23.20;99.90
33269;DHT22;19640;50.944;5.260;2022-07-29T09:47:18;23.50;99.90
33269;DHT22;19640;50.944;5.260;2022-07-29T09:49:53;23.50;99.90
33269;DHT22;19640;50.944;5.260;2022-07-29T09:52:19;23.80;99.90
33269;DHT22;19640;50.944;5.260;2022-07-29T09:54:46;24.10;99.90
33269;DHT22;19640;50.944;5.260;2022-07-29T09:57:28;24.00;99.90
33269;DHT22;19640;50.944;5.260;2022-07-29T10:00:02;24.40;99.90
33269;DHT22;19640;50.944;5.260;2022-07-29T10:02:32;24.60;99.90
33269;DHT22;19640;50.944;5.260;2022-07-29T10:04:59;24.30;99.90
33269;DHT22;19640;50.944;5.260;2022-07-29T10:07:26;24.20;99.90
33269;DHT22;19640;50.944;5.260;2022-07-29T10:09:56;23.80;99.90
33269;DHT22;19640;50.944;5.260;2022-07-29T10:12:22;23.70;99.90
33269;DHT22;19640;50.944;5.260;2022-07-29T10:14:49;23.30;99.90
33269;DHT22;19640;50.944;5.260;2022-07-29T10:17:16;23.10;99.90
33269;DHT22;19640;50.944;5.260;2022-07-29T10:19:42;23.30;99.90
33269;DHT22;19640;50.944;5.260;2022-07-29T10:22:09;23.80;99.90
33269;DHT22;19640;50.944;5.260;2022-07-29T10:24:37;24.00;99.90
33269;DHT22;19640;50.944;5.260;2022-07-29T10:27:06;24.20;99.90
33269;DHT22;19640;50.944;5.260;2022-07-29T10:29:32;24.30;99.90
33269;DHT22;19640;50.944;5.260;2022-07-29T10:32:13;24.40;99.90
33269;DHT22;19640;50.944;5.260;2022-07-29T10:43:21;24.40;99.90
33269;DHT22;19640;50.944;5.260;2022-07-29T10:45:49;23.80;99.90
33269;DHT22;19640;50.944;5.260;2022-07-29T10:48:15;23.60;99.90
33269;DHT22;19640;50.944;5.260;2022-07-29T10:51:01;24.00;99.90
33269;DHT22;19640;50.944;5.260;2022-07-29T10:53:47;24.50;99.90
33269;DHT22;19640;50.944;5.260;2022-07-29T10:56:27;25.10;99.90
33269;DHT22;19640;50.944;5.260;2022-07-29T11:01:49;25.10;99.90
33269;DHT22;19640;50.944;5.260;2022-07-29T11:04:16;25.10;99.90
33269;DHT22;19640;50.944;5.260;2022-07-29T11:09:26;24.40;99.90
33269;DHT22;19640;50.944;5.260;2022-07-29T11:11:52;24.10;99.90
33269;DHT22;19640;50.944;5.260;2022-07-29T11:14:54;24.40;99.90
33269;DHT22;19640;50.944;5.260;2022-07-29T11:17:05;24.10;99.90
33269;DHT22;19640;50.944;5.260;2022-07-29T11:19:32;24.00;99.90
33269;DHT22;19640;50.944;5.260;2022-07-29T11:21:58;24.50;99.90
33269;DHT22;19640;50.944;5.260;2022-07-29T11:24:28;24.60;99.90
33269;DHT22;19640;50.944;5.260;2022-07-29T11:27:18;24.90;99.90
33269;DHT22;19640;50.944;5.260;2022-07-29T11:29:49;25.30;99.90
33269;DHT22;19640;50.944;5.260;2022-07-29T11:32:16;25.50;99.90
33269;DHT22;19640;50.944;5.260;2022-07-29T11:34:45;25.70;99.90
33269;DHT22;19640;50.944;5.260;2022-07-29T11:40:07;25.60;99.90
33269;DHT22;19640;50.944;5.260;2022-07-29T11:47:38;24.80;99.90
33269;DHT22;19640;50.944;5.260;2022-07-29T11:50:09;24.90;99.90
33269;DHT22;19640;50.944;5.260;2022-07-29T11:52:43;24.90;99.90
33269;DHT22;19640;50.944;5.260;2022-07-29T11:55:21;25.40;99.90
33269;DHT22;19640;50.944;5.260;2022-07-29T11:57:55;25.90;99.90
33269;DHT22;19640;50.944;5.260;2022-07-29T12:00:29;26.20;98.90
33269;DHT22;19640;50.944;5.260;2022-07-29T12:02:56;26.20;98.90
33269;DHT22;19640;50.944;5.260;2022-07-29T12:05:31;26.20;97.50
33269;DHT22;19640;50.944;5.260;2022-07-29T12:08:25;26.10;96.80
33269;DHT22;19640;50.944;5.260;2022-07-29T12:10:51;26.00;96.80
33269;DHT22;19640;50.944;5.260;2022-07-29T12:13:21;25.70;97.50
33269;DHT22;19640;50.944;5.260;2022-07-29T12:15:57;25.60;98.50
33269;DHT22;19640;50.944;5.260;2022-07-29T12:18:24;25.40;98.50
33269;DHT22;19640;50.944;5.260;2022-07-29T12:20:57;25.80;99.20
33269;DHT22;19640;50.944;5.260;2022-07-29T12:23:23;26.20;98.20
33269;DHT22;19640;50.944;5.260;2022-07-29T12:25:49;26.30;97.60
33269;DHT22;19640;50.944;5.260;2022-07-29T12:28:15;26.40;97.60
33269;DHT22;19640;50.944;5.260;2022-07-29T12:30:44;26.70;97.80
33269;DHT22;19640;50.944;5.260;2022-07-29T12:33:24;26.80;96.20
33269;DHT22;19640;50.944;5.260;2022-07-29T12:35:58;26.90;95.20
33269;DHT22;19640;50.944;5.260;2022-07-29T12:38:24;26.70;95.40
33269;DHT22;19640;50.944;5.260;2022-07-29T12:40:53;26.00;95.90
33269;DHT22;19640;50.944;5.260;2022-07-29T12:43:23;26.10;96.10
33269;DHT22;19640;50.944;5.260;2022-07-29T12:45:51;26.30;97.00
33269;DHT22;19640;50.944;5.260;2022-07-29T12:48:35;26.60;96.50
33269;DHT22;19640;50.944;5.260;2022-07-29T12:51:03;26.70;95.40
33269;DHT22;19640;50.944;5.260;2022-07-29T12:53:29;26.40;97.20
33269;DHT22;19640;50.944;5.260;2022-07-29T12:55:57;26.10;96.90
33269;DHT22;19640;50.944;5.260;2022-07-29T13:01:16;26.60;96.00
33269;DHT22;19640;50.944;5.260;2022-07-29T13:03:56;26.80;95.50
33269;DHT22;19640;50.944;5.260;2022-07-29T13:06:29;26.90;95.30
33269;DHT22;19640;50.944;5.260;2022-07-29T13:09:13;26.70;95.70
33269;DHT22;19640;50.944;5.260;2022-07-29T13:11:48;26.70;96.60
33269;DHT22;19640;50.944;5.260;2022-07-29T13:14:41;26.50;94.80
33269;DHT22;19640;50.944;5.260;2022-07-29T13:17:17;26.40;95.80
33269;DHT22;19640;50.944;5.260;2022-07-29T13:22:23;26.00;93.70
33269;DHT22;19640;50.944;5.260;2022-07-29T13:27:20;26.20;95.60
33269;DHT22;19640;50.944;5.260;2022-07-29T13:29:46;26.30;94.10
33269;DHT22;19640;50.944;5.260;2022-07-29T13:32:12;26.50;94.80
33269;DHT22;19640;50.944;5.260;2022-07-29T13:34:39;26.40;94.10
33269;DHT22;19640;50.944;5.260;2022-07-29T13:37:04;26.60;95.70
33269;DHT22;19640;50.944;5.260;2022-07-29T13:39:30;26.70;94.50
33269;DHT22;19640;50.944;5.260;2022-07-29T13:41:56;26.80;95.30
33269;DHT22;19640;50.944;5.260;2022-07-29T13:44:21;26.90;92.90
33269;DHT22;19640;50.944;5.260;2022-07-29T13:46:47;27.30;92.40
33269;DHT22;19640;50.944;5.260;2022-07-29T13:49:13;27.60;92.20
33269;DHT22;19640;50.944;5.260;2022-07-29T13:51:38;27.50;91.20
33269;DHT22;19640;50.944;5.260;2022-07-29T13:54:04;27.10;90.40
33269;DHT22;19640;50.944;5.260;2022-07-29T13:56:30;27.10;92.40
33269;DHT22;19640;50.944;5.260;2022-07-29T13:58:56;27.10;91.40
33269;DHT22;19640;50.944;5.260;2022-07-29T14:01:22;26.90;91.80
33269;DHT22;19640;50.944;5.260;2022-07-29T14:03:48;26.60;93.40
33269;DHT22;19640;50.944;5.260;2022-07-29T14:06:14;26.40;93.10
33269;DHT22;19640;50.944;5.260;2022-07-29T14:08:40;26.40;93.90
33269;DHT22;19640;50.944;5.260;2022-07-29T14:11:06;26.80;93.30
33269;DHT22;19640;50.944;5.260;2022-07-29T14:13:32;26.90;91.80
33269;DHT22;19640;50.944;5.260;2022-07-29T14:15:58;27.00;91.90
33269;DHT22;19640;50.944;5.260;2022-07-29T14:18:23;27.10;93.40
33269;DHT22;19640;50.944;5.260;2022-07-29T14:20:49;27.10;94.80
33269;DHT22;19640;50.944;5.260;2022-07-29T14:23:15;27.30;90.90
33269;DHT22;19640;50.944;5.260;2022-07-29T14:25:41;27.10;91.20
33269;DHT22;19640;50.944;5.260;2022-07-29T14:28:07;26.90;92.50
33269;DHT22;19640;50.944;5.260;2022-07-29T14:30:32;26.70;92.60
33269;DHT22;19640;50.944;5.260;2022-07-29T14:32:58;26.50;94.30
33269;DHT22;19640;50.944;5.260;2022-07-29T14:35:24;26.40;93.40
33269;DHT22;19640;50.944;5.260;2022-07-29T14:37:49;26.80;93.00
33269;DHT22;19640;50.944;5.260;2022-07-29T14:40:15;27.10;92.60
33269;DHT22;19640;50.944;5.260;2022-07-29T14:42:41;27.30;91.90
33269;DHT22;19640;50.944;5.260;2022-07-29T14:45:08;27.60;92.30
33269;DHT22;19640;50.944;5.260;2022-07-29T14:47:34;27.80;91.40
33269;DHT22;19640;50.944;5.260;2022-07-29T14:49:59;27.70;90.50
33269;DHT22;19640;50.944;5.260;2022-07-29T14:52:25;27.70;91.70
33269;DHT22;19640;50.944;5.260;2022-07-29T14:54:51;27.80;91.00
33269;DHT22;19640;50.944;5.260;2022-07-29T14:57:16;28.00;92.40
33269;DHT22;19640;50.944;5.260;2022-07-29T14:59:42;27.90;91.60
33269;DHT22;19640;50.944;5.260;2022-07-29T15:02:08;27.70;92.20
33269;DHT22;19640;50.944;5.260;2022-07-29T15:04:34;27.40;91.00
33269;DHT22;19640;50.944;5.260;2022-07-29T15:06:59;27.50;91.00
33269;DHT22;19640;50.944;5.260;2022-07-29T15:09:25;27.40;90.40
33269;DHT22;19640;50.944;5.260;2022-07-29T15:11:51;27.50;91.00
33269;DHT22;19640;50.944;5.260;2022-07-29T15:14:17;27.80;91.00
33269;DHT22;19640;50.944;5.260;2022-07-29T15:16:42;28.10;89.80
33269;DHT22;19640;50.944;5.260;2022-07-29T15:19:08;27.80;90.90
33269;DHT22;19640;50.944;5.260;2022-07-29T15:21:34;28.00;86.90
33269;DHT22;19640;50.944;5.260;2022-07-29T15:24:00;27.90;87.80
33269;DHT22;19640;50.944;5.260;2022-07-29T15:26:26;27.70;87.50
33269;DHT22;19640;50.944;5.260;2022-07-29T15:28:51;27.50;87.50
33269;DHT22;19640;50.944;5.260;2022-07-29T15:31:17;27.30;87.30
33269;DHT22;19640;50.944;5.260;2022-07-29T15:33:44;27.00;87.30
33269;DHT22;19640;50.944;5.260;2022-07-29T15:36:10;26.70;89.10
33269;DHT22;19640;50.944;5.260;2022-07-29T15:38:37;26.60;89.50
33269;DHT22;19640;50.944;5.260;2022-07-29T15:41:04;26.40;88.40
33269;DHT22;19640;50.944;5.260;2022-07-29T15:43:30;26.40;88.90
33269;DHT22;19640;50.944;5.260;2022-07-29T15:45:56;26.40;88.30
33269;DHT22;19640;50.944;5.260;2022-07-29T15:48:40;26.40;89.40
33269;DHT22;19640;50.944;5.260;2022-07-29T15:51:05;26.30;88.10
33269;DHT22;19640;50.944;5.260;2022-07-29T15:53:31;26.20;87.80
33269;DHT22;19640;50.944;5.260;2022-07-29T15:55:57;26.20;89.10
33269;DHT22;19640;50.944;5.260;2022-07-29T15:58:22;26.10;88.70
33269;DHT22;19640;50.944;5.260;2022-07-29T16:00:48;26.00;89.50
33269;DHT22;19640;50.944;5.260;2022-07-29T16:03:14;26.00;89.70
33269;DHT22;19640;50.944;5.260;2022-07-29T16:05:41;26.00;89.60
33269;DHT22;19640;50.944;5.260;2022-07-29T16:08:06;26.00;90.40
33269;DHT22;19640;50.944;5.260;2022-07-29T16:10:32;26.20;89.90
33269;DHT22;19640;50.944;5.260;2022-07-29T16:12:58;26.20;89.90
33269;DHT22;19640;50.944;5.260;2022-07-29T16:15:24;26.30;89.70
33269;DHT22;19640;50.944;5.260;2022-07-29T16:17:49;26.10;90.40
33269;DHT22;19640;50.944;5.260;2022-07-29T16:20:15;26.20;90.90
33269;DHT22;19640;50.944;5.260;2022-07-29T16:22:41;26.30;90.30